createdAt,value
2022-09-01T00:00:30.153Z,4.43
2022-09-01T00:02:58.548Z,6.60
2022-09-01T00:05:27.179Z,4.18
2022-09-01T00:07:55.325Z,3.80
2022-09-01T00:10:23.842Z,4.40
2022-09-01T00:12:51.917Z,4.28
2022-09-01T00:15:19.986Z,4.40
2022-09-01T00:17:48.334Z,4.50
2022-09-01T00:20:20.273Z,4.35
2022-09-01T00:22:49.357Z,3.75
2022-09-01T00:25:20.438Z,2.90
2022-09-01T00:27:50.053Z,3.15
2022-09-01T00:30:22.773Z,4.28
2022-09-01T00:32:51.061Z,3.58
2022-09-01T00:35:20.611Z,3.28
2022-09-01T00:37:48.739Z,2.33
2022-09-01T00:40:18.410Z,3.90
2022-09-01T00:42:49.149Z,3.75
2022-09-01T00:45:22.355Z,3.10
2022-09-01T00:47:51.409Z,3.70
2022-09-01T00:50:20.367Z,3.97
2022-09-01T00:52:55.412Z,3.97
2022-09-01T00:55:32.628Z,3.95
2022-09-01T00:58:03.560Z,3.67
2022-09-01T01:00:34.579Z,3.60
2022-09-01T01:03:02.744Z,3.10
2022-09-01T01:05:36.734Z,3.38
2022-09-01T01:08:08.434Z,3.20
2022-09-01T01:13:17.258Z,2.55
2022-09-01T01:15:45.961Z,2.90
2022-09-01T01:18:16.994Z,2.88
2022-09-01T01:21:24.570Z,2.88
2022-09-01T01:24:09.485Z,2.50
2022-09-01T01:26:38.335Z,2.42
2022-09-01T01:29:09.659Z,3.08
2022-09-01T01:31:38.243Z,2.40
2022-09-01T01:34:08.231Z,2.17
2022-09-01T01:36:40.144Z,2.70
2022-09-01T01:39:21.826Z,1.85
2022-09-01T01:41:51.320Z,2.45
2022-09-01T01:44:28.365Z,2.20
2022-09-01T01:47:04.527Z,2.28
2022-09-01T01:49:35.241Z,2.55
2022-09-01T01:52:04.804Z,2.10
2022-09-01T01:54:37.777Z,2.10
2022-09-01T01:57:05.898Z,2.30
2022-09-01T01:59:34.673Z,2.22
2022-09-01T02:02:04.245Z,2.22
2022-09-01T02:04:34.289Z,2.47
2022-09-01T02:07:13.590Z,2.67
2022-09-01T02:09:46.166Z,2.33
2022-09-01T02:12:19.790Z,2.80
2022-09-01T02:14:48.745Z,2.30
2022-09-01T02:17:17.800Z,2.45
2022-09-01T02:19:47.661Z,2.28
2022-09-01T02:22:15.633Z,2.92
2022-09-01T02:24:49.344Z,2.47
2022-09-01T02:27:22.073Z,2.53
2022-09-01T02:29:54.963Z,2.30
2022-09-01T02:32:23.026Z,2.72
2022-09-01T02:34:53.861Z,2.08
2022-09-01T02:37:25.620Z,2.90
2022-09-01T02:39:57.774Z,2.60
2022-09-01T02:42:29.885Z,2.38
2022-09-01T02:44:58.837Z,2.55
2022-09-01T02:47:29.731Z,2.55
2022-09-01T02:50:01.315Z,3.10
2022-09-01T02:52:37.753Z,2.10
2022-09-01T02:55:07.551Z,2.15
2022-09-01T02:57:36.030Z,2.40
2022-09-01T03:00:21.187Z,2.40
2022-09-01T03:02:53.322Z,2.53
2022-09-01T03:05:27.286Z,2.35
2022-09-01T03:08:00.748Z,2.55
2022-09-01T03:10:35.759Z,2.30
2022-09-01T03:13:21.143Z,2.35
2022-09-01T03:15:50.695Z,2.50
2022-09-01T03:18:19.893Z,2.83
2022-09-01T03:20:53.141Z,2.45
2022-09-01T03:23:21.446Z,2.40
2022-09-01T03:25:49.820Z,2.10
2022-09-01T03:28:18.960Z,2.45
2022-09-01T03:30:52.664Z,2.80
2022-09-01T03:33:23.181Z,2.15
2022-09-01T03:35:52.001Z,2.50
2022-09-01T03:38:24.622Z,2.38
2022-09-01T03:41:02.184Z,2.65
2022-09-01T03:43:35.506Z,2.63
2022-09-01T03:46:05.032Z,2.22
2022-09-01T03:48:33.453Z,2.30
2022-09-01T03:51:03.322Z,2.30
2022-09-01T03:53:38.299Z,2.20
2022-09-01T03:56:09.107Z,2.65
2022-09-01T03:58:41.061Z,2.38
2022-09-01T04:01:12.724Z,2.42
2022-09-01T04:03:49.194Z,2.42
2022-09-01T04:06:24.508Z,1.88
2022-09-01T04:09:02.860Z,2.20
2022-09-01T04:11:34.087Z,2.22
2022-09-01T04:14:02.914Z,1.95
2022-09-01T04:16:54.591Z,1.80
2022-09-01T04:19:26.566Z,1.63
2022-09-01T04:22:01.340Z,1.73
2022-09-01T04:24:35.007Z,1.75
2022-09-01T04:27:09.193Z,1.92
2022-09-01T04:29:39.345Z,1.67
2022-09-01T04:32:13.299Z,2.08
2022-09-01T04:34:45.227Z,1.92
2022-09-01T04:37:21.813Z,1.80
2022-09-01T04:39:57.824Z,1.85
2022-09-01T04:42:32.692Z,1.83
2022-09-01T04:45:10.470Z,1.83
2022-09-01T04:47:45.691Z,1.73
2022-09-01T04:50:19.145Z,1.98
2022-09-01T04:53:07.055Z,1.85
2022-09-01T04:55:45.511Z,1.60
2022-09-01T04:58:19.056Z,1.70
2022-09-01T05:00:52.378Z,1.67
2022-09-01T05:03:24.409Z,1.80
2022-09-01T05:06:20.778Z,2.10
2022-09-01T05:08:59.770Z,1.55
2022-09-01T05:11:45.298Z,1.40
2022-09-01T05:14:23.487Z,1.40
2022-09-01T05:16:59.971Z,1.15
2022-09-01T05:19:31.008Z,1.00
2022-09-01T05:22:01.429Z,1.02
2022-09-01T05:24:32.388Z,1.27
2022-09-01T05:27:08.524Z,1.17
2022-09-01T05:29:38.957Z,1.10
2022-09-01T05:32:12.734Z,1.30
2022-09-01T05:34:44.027Z,1.15
2022-09-01T05:39:42.772Z,0.95
2022-09-01T05:42:11.657Z,1.20
2022-09-01T05:44:44.467Z,1.10
2022-09-01T05:47:20.375Z,1.25
2022-09-01T05:49:53.874Z,0.88
2022-09-01T05:52:25.271Z,0.82
2022-09-01T05:54:55.673Z,0.95
2022-09-01T05:57:34.311Z,1.10
2022-09-01T06:00:12.584Z,1.13
2022-09-01T06:02:43.758Z,1.60
2022-09-01T06:05:19.349Z,1.10
2022-09-01T06:07:49.721Z,1.37
2022-09-01T06:10:19.342Z,1.05
2022-09-01T06:12:48.830Z,1.00
2022-09-01T06:15:18.659Z,0.97
2022-09-01T06:17:51.533Z,1.10
2022-09-01T06:20:20.281Z,0.98
2022-09-01T06:22:49.052Z,0.95
2022-09-01T06:25:18.803Z,1.00
2022-09-01T06:27:48.720Z,1.02
2022-09-01T06:30:24.664Z,0.90
2022-09-01T06:33:11.235Z,0.90
2022-09-01T06:35:45.151Z,1.13
2022-09-01T06:38:15.594Z,0.80
2022-09-01T06:40:47.597Z,1.02
2022-09-01T06:43:20.625Z,1.10
2022-09-01T06:45:55.625Z,1.00
2022-09-01T06:48:31.126Z,1.13
2022-09-01T06:51:21.806Z,1.30
2022-09-01T06:53:59.903Z,0.90
2022-09-01T06:56:37.104Z,0.93
2022-09-01T06:59:15.798Z,0.85
2022-09-01T07:01:53.298Z,0.80
2022-09-01T07:04:32.214Z,0.90
2022-09-01T07:10:22.708Z,0.80
2022-09-01T07:13:06.657Z,0.80
2022-09-01T07:18:34.250Z,0.70
2022-09-01T07:21:36.123Z,0.60
2022-09-01T07:24:13.665Z,0.70
2022-09-01T07:27:09.353Z,0.70
2022-09-01T07:29:41.624Z,0.90
2022-09-01T07:35:00.251Z,0.57
2022-09-01T07:43:44.981Z,0.80
2022-09-01T07:46:40.524Z,0.40
2022-09-01T07:49:30.146Z,0.65
2022-09-01T07:52:03.967Z,0.70
2022-09-01T07:54:34.301Z,0.70
2022-09-01T07:57:03.262Z,0.40
2022-09-01T07:59:35.681Z,0.75
2022-09-01T08:02:18.469Z,0.43
2022-09-01T08:04:49.412Z,0.50
2022-09-01T08:07:20.707Z,0.50
2022-09-01T08:09:49.164Z,0.63
2022-09-01T08:12:18.010Z,0.77
2022-09-01T08:17:51.523Z,0.70
2022-09-01T08:20:21.539Z,0.50
2022-09-01T08:23:16.425Z,0.55
2022-09-01T08:25:46.981Z,0.50
2022-09-01T08:28:17.109Z,0.57
2022-09-01T08:30:52.493Z,0.67
2022-09-01T08:33:26.312Z,0.50
2022-09-01T08:35:55.740Z,0.53
2022-09-01T08:38:24.311Z,0.70
2022-09-01T08:40:57.480Z,0.70
2022-09-01T08:43:37.925Z,0.88
2022-09-01T08:46:24.262Z,0.98
2022-09-01T08:52:27.786Z,0.90
2022-09-01T08:55:27.541Z,0.50
2022-09-01T08:57:59.899Z,0.50
2022-09-01T09:00:36.171Z,1.00
2022-09-01T09:03:23.883Z,0.68
2022-09-01T09:08:58.687Z,0.50
2022-09-01T09:11:45.916Z,0.50
2022-09-01T09:14:44.325Z,0.70
2022-09-01T09:17:16.190Z,0.50
2022-09-01T09:19:45.976Z,0.40
2022-09-01T09:22:17.946Z,0.52
2022-09-01T09:25:36.998Z,0.47
2022-09-01T09:28:05.404Z,0.40
2022-09-01T09:30:33.902Z,0.60
2022-09-01T09:36:19.645Z,0.47
2022-09-01T09:38:48.083Z,0.45
2022-09-01T09:41:20.906Z,0.50
2022-09-01T09:44:02.344Z,0.60
2022-09-01T09:46:36.204Z,0.65
2022-09-01T09:49:36.456Z,0.40
2022-09-01T09:52:08.957Z,0.28
2022-09-01T09:54:42.106Z,0.50
2022-09-01T09:57:13.798Z,0.60
2022-09-01T10:00:10.330Z,0.50
2022-09-01T10:02:52.052Z,0.70
2022-09-01T10:05:25.863Z,0.60
2022-09-01T10:07:57.035Z,0.22
2022-09-01T10:12:59.511Z,0.55
2022-09-01T10:15:33.612Z,0.43
2022-09-01T10:18:29.074Z,0.60
2022-09-01T10:21:08.675Z,0.30
2022-09-01T10:23:38.818Z,0.52
2022-09-01T10:26:23.444Z,0.60
2022-09-01T10:29:01.301Z,0.45
2022-09-01T10:31:32.726Z,0.40
2022-09-01T10:34:05.835Z,0.40
2022-09-01T10:36:37.667Z,0.60
2022-09-01T10:39:11.009Z,0.55
2022-09-01T10:42:01.078Z,0.40
2022-09-01T10:44:36.470Z,0.40
2022-09-01T10:47:32.881Z,0.40
2022-09-01T10:50:22.924Z,0.32
2022-09-01T10:53:00.022Z,0.40
2022-09-01T10:55:45.685Z,0.32
2022-09-01T11:01:48.382Z,0.53
2022-09-01T11:04:30.725Z,0.40
2022-09-01T11:07:13.302Z,0.40
2022-09-01T11:09:46.438Z,0.52
2022-09-01T11:12:38.525Z,0.43
2022-09-01T11:15:42.621Z,0.60
2022-09-01T11:18:29.700Z,0.38
2022-09-01T11:21:28.259Z,0.40
2022-09-01T11:24:40.416Z,0.32
2022-09-01T11:27:33.925Z,0.40
2022-09-01T11:30:10.008Z,0.52
2022-09-01T11:32:40.865Z,0.40
2022-09-01T11:35:23.675Z,0.30
2022-09-01T11:37:57.558Z,0.73
2022-09-01T11:40:33.660Z,0.45
2022-09-01T11:43:16.950Z,0.47
2022-09-01T11:45:56.601Z,0.43
2022-09-01T11:48:27.248Z,0.38
2022-09-01T11:51:04.865Z,0.30
2022-09-01T11:53:34.848Z,0.20
2022-09-01T11:56:43.098Z,0.20
2022-09-01T11:59:11.806Z,0.28
2022-09-01T12:01:41.246Z,0.20
2022-09-01T12:04:40.429Z,0.40
2022-09-01T12:07:24.199Z,0.35
2022-09-01T12:09:53.165Z,0.28
2022-09-01T12:12:37.142Z,0.28
2022-09-01T12:15:27.178Z,0.20
2022-09-01T12:18:35.747Z,0.38
2022-09-01T12:21:08.216Z,0.30
2022-09-01T12:23:46.106Z,0.20
2022-09-01T12:26:29.530Z,0.30
2022-09-01T12:28:58.398Z,0.20
2022-09-01T12:31:27.230Z,0.40
2022-09-01T12:33:57.168Z,0.30
2022-09-01T12:36:35.421Z,0.40
2022-09-01T12:39:20.013Z,0.30
2022-09-01T12:42:20.756Z,0.35
2022-09-01T12:44:59.625Z,0.30
2022-09-01T12:47:36.797Z,0.20
2022-09-01T12:50:07.825Z,0.30
2022-09-01T12:52:46.952Z,0.20
2022-09-01T12:58:10.877Z,0.28
2022-09-01T13:00:59.864Z,0.30
2022-09-01T13:03:29.700Z,0.25
2022-09-01T13:06:01.195Z,0.10
2022-09-01T13:08:36.093Z,0.25
2022-09-01T13:11:11.323Z,0.30
2022-09-01T13:13:40.063Z,0.40
2022-09-01T13:16:13.413Z,0.30
2022-09-01T13:21:35.342Z,0.40
2022-09-01T13:24:07.209Z,0.30
2022-09-01T13:26:37.071Z,0.30
2022-09-01T13:29:05.211Z,0.20
2022-09-01T13:31:34.312Z,0.22
2022-09-01T13:34:22.910Z,0.20
2022-09-01T13:36:52.875Z,0.50
2022-09-01T13:39:22.858Z,0.22
2022-09-01T13:41:51.588Z,0.30
2022-09-01T13:44:19.938Z,0.45
2022-09-01T13:50:05.576Z,0.40
2022-09-01T13:52:25.200Z,0.20
2022-09-01T13:54:53.585Z,0.20
2022-09-01T13:57:21.737Z,0.25
2022-09-01T13:59:50.444Z,0.10
2022-09-01T14:02:18.584Z,0.40
2022-09-01T14:04:47.229Z,0.30
2022-09-01T14:07:16.576Z,0.20
2022-09-01T14:09:45.964Z,0.22
2022-09-01T14:12:14.007Z,0.28
2022-09-01T14:17:30.473Z,0.20
2022-09-01T14:19:58.636Z,0.15
2022-09-01T14:22:26.778Z,0.30
2022-09-01T14:24:55.053Z,0.22
2022-09-01T14:27:23.586Z,0.20
2022-09-01T14:29:54.768Z,0.28
2022-09-01T14:32:27.327Z,0.30
2022-09-01T14:34:56.829Z,0.30
2022-09-01T14:37:25.509Z,0.40
2022-09-01T14:39:57.569Z,0.28
2022-09-01T14:42:28.832Z,0.47
2022-09-01T14:44:57.322Z,0.30
2022-09-01T14:47:26.259Z,0.38
2022-09-01T14:49:55.980Z,0.10
2022-09-01T14:52:24.148Z,0.20
2022-09-01T14:54:52.692Z,0.25
2022-09-01T14:57:30.804Z,0.20
2022-09-01T15:00:10.661Z,0.32
2022-09-01T15:02:43.100Z,0.30
2022-09-01T15:05:13.381Z,0.30
2022-09-01T15:07:42.947Z,0.40
2022-09-01T15:10:23.411Z,0.20
2022-09-01T15:12:59.380Z,0.35
2022-09-01T15:15:30.043Z,0.38
2022-09-01T15:18:01.056Z,0.40
2022-09-01T15:20:45.889Z,0.57
2022-09-01T15:23:19.677Z,0.40
2022-09-01T15:25:50.769Z,0.30
2022-09-01T15:28:19.171Z,0.47
2022-09-01T15:30:47.717Z,1.70
2022-09-01T15:33:16.854Z,1.13
2022-09-01T15:35:46.701Z,1.30
2022-09-01T15:38:17.781Z,1.00
2022-09-01T15:43:27.951Z,1.25
2022-09-01T15:46:02.310Z,0.93
2022-09-01T15:48:30.571Z,1.02
2022-09-01T15:51:33.598Z,0.90
2022-09-01T15:54:07.547Z,0.60
2022-09-01T15:56:36.013Z,0.40
2022-09-01T15:59:08.123Z,0.40
2022-09-01T16:01:42.985Z,0.70
2022-09-01T16:04:18.622Z,0.80
2022-09-01T16:06:49.839Z,0.60
2022-09-01T16:09:21.349Z,0.43
2022-09-01T16:14:17.638Z,0.50
2022-09-01T16:17:08.143Z,1.17
2022-09-01T16:19:58.449Z,0.80
2022-09-01T16:22:44.817Z,0.90
2022-09-01T16:25:24.287Z,0.80
2022-09-01T16:27:54.316Z,0.70
2022-09-01T16:30:29.292Z,0.80
2022-09-01T16:33:03.074Z,0.70
2022-09-01T16:36:08.242Z,0.80
2022-09-01T16:38:44.408Z,0.60
2022-09-01T16:41:44.704Z,0.60
2022-09-01T16:44:21.809Z,0.90
2022-09-01T16:47:05.806Z,0.80
2022-09-01T16:50:05.320Z,0.85
2022-09-01T16:52:59.535Z,0.98
2022-09-01T16:55:53.633Z,0.50
2022-09-01T16:58:37.829Z,0.57
2022-09-01T17:01:37.329Z,0.60
2022-09-01T17:04:12.068Z,0.70
2022-09-01T17:07:07.897Z,0.60
2022-09-01T17:10:13.174Z,0.65
2022-09-01T17:12:53.413Z,0.98
2022-09-01T17:15:41.217Z,1.42
2022-09-01T17:18:42.637Z,1.42
2022-09-01T17:21:46.383Z,1.70
2022-09-01T17:24:26.278Z,1.60
2022-09-01T17:27:08.101Z,2.25
2022-09-01T17:29:52.337Z,2.45
2022-09-01T17:32:41.747Z,2.28
2022-09-01T17:35:37.875Z,2.30
2022-09-01T17:38:39.904Z,2.38
2022-09-01T17:44:30.204Z,2.42
2022-09-01T17:47:23.413Z,2.67
2022-09-01T17:50:15.550Z,2.88
2022-09-01T17:53:12.562Z,2.55
2022-09-01T17:56:23.924Z,1.92
2022-09-01T17:59:38.398Z,2.03
2022-09-01T18:03:09.611Z,2.30
2022-09-01T18:05:44.718Z,1.60
2022-09-01T18:08:30.920Z,1.50
2022-09-01T18:11:29.492Z,2.35
2022-09-01T18:14:21.157Z,2.10
2022-09-01T18:16:52.171Z,1.65
2022-09-01T18:19:26.586Z,2.00
2022-09-01T18:22:06.238Z,2.13
2022-09-01T18:24:42.253Z,2.90
2022-09-01T18:27:12.542Z,2.53
2022-09-01T18:29:41.835Z,6.05
2022-09-01T18:32:39.256Z,3.55
2022-09-01T18:35:47.332Z,3.90
2022-09-01T18:38:41.293Z,3.58
2022-09-01T18:41:12.187Z,2.95
2022-09-01T18:44:49.445Z,3.40
2022-09-01T18:48:19.592Z,2.95
2022-09-01T18:51:31.959Z,2.67
2022-09-01T18:54:56.608Z,3.10
2022-09-01T18:57:54.767Z,2.50
2022-09-01T19:04:56.008Z,2.80
2022-09-01T19:08:27.513Z,2.47
2022-09-01T19:11:46.048Z,3.13
2022-09-01T19:15:11.645Z,2.83
2022-09-01T19:18:02.325Z,2.63
2022-09-01T19:20:46.745Z,2.72
2022-09-01T19:23:42.372Z,2.92
2022-09-01T19:26:21.418Z,4.22
2022-09-01T19:29:05.581Z,3.83
2022-09-01T19:32:00.080Z,4.00
2022-09-01T19:34:54.443Z,3.63
2022-09-01T19:37:28.948Z,4.03
2022-09-01T19:40:01.916Z,3.78
2022-09-01T19:42:57.801Z,3.58
2022-09-01T19:46:14.850Z,2.72
2022-09-01T19:49:21.971Z,2.80
2022-09-01T19:52:53.385Z,3.22
2022-09-01T19:55:58.956Z,3.30
2022-09-01T19:58:57.330Z,3.25
2022-09-01T20:01:43.072Z,3.33
2022-09-01T20:04:27.237Z,3.13
2022-09-01T20:07:02.487Z,2.88
2022-09-01T20:09:44.144Z,2.95
2022-09-01T20:12:32.529Z,3.07
2022-09-01T20:15:18.028Z,3.00
2022-09-01T20:17:58.372Z,3.45
2022-09-01T20:20:46.727Z,2.80
2022-09-01T20:24:02.064Z,2.75
2022-09-01T20:27:16.128Z,2.70
2022-09-01T20:30:10.129Z,2.40
2022-09-01T20:33:10.611Z,2.50
2022-09-01T20:36:03.228Z,2.97
2022-09-01T20:39:25.674Z,3.17
2022-09-01T20:42:19.738Z,3.13
2022-09-01T20:45:01.934Z,2.55
2022-09-01T20:47:32.262Z,3.15
2022-09-01T20:50:13.018Z,3.00
2022-09-01T20:53:09.792Z,2.95
2022-09-01T20:55:50.270Z,3.00
2022-09-01T20:58:45.454Z,3.03
2022-09-01T21:01:46.677Z,3.10
2022-09-01T21:04:29.548Z,2.50
2022-09-01T21:07:31.882Z,2.53
2022-09-01T21:10:31.040Z,2.65
2022-09-01T21:13:25.154Z,2.90
2022-09-01T21:16:27.674Z,2.70
2022-09-01T21:19:14.878Z,2.75
2022-09-01T21:21:47.568Z,3.05
2022-09-01T21:24:16.965Z,2.60
2022-09-01T21:26:45.610Z,3.33
2022-09-01T21:29:22.713Z,3.17
2022-09-01T21:31:51.614Z,2.78
2022-09-01T21:34:19.925Z,2.53
2022-09-01T21:36:48.182Z,2.90
2022-09-01T21:39:16.345Z,2.60
2022-09-01T21:41:45.633Z,3.50
2022-09-01T21:44:15.415Z,3.35
2022-09-01T21:46:43.888Z,2.88
2022-09-01T21:49:14.320Z,3.15
2022-09-01T21:51:43.741Z,3.38
2022-09-01T21:54:12.017Z,3.22
2022-09-01T21:56:40.062Z,3.17
2022-09-01T21:59:11.921Z,2.63
2022-09-01T22:01:40.117Z,3.03
2022-09-01T22:04:08.583Z,3.10
2022-09-01T22:06:41.917Z,2.95
2022-09-01T22:09:20.701Z,3.10
2022-09-01T22:11:51.955Z,3.30
2022-09-01T22:14:22.078Z,4.15
2022-09-01T22:16:50.941Z,2.92
2022-09-01T22:19:20.168Z,3.10
2022-09-01T22:21:49.134Z,3.40
2022-09-01T22:24:19.155Z,3.17
2022-09-01T22:26:49.201Z,2.88
2022-09-01T22:29:18.512Z,3.75
2022-09-01T22:31:46.708Z,3.15
2022-09-01T22:34:14.954Z,3.42
2022-09-01T22:36:47.402Z,3.85
2022-09-01T22:39:17.817Z,3.30
2022-09-01T22:41:46.571Z,3.60
2022-09-01T22:44:14.942Z,3.40
2022-09-01T22:46:44.722Z,3.22
2022-09-01T22:49:13.292Z,3.08
2022-09-01T22:51:43.269Z,3.25
2022-09-01T22:54:12.013Z,3.10
2022-09-01T22:56:41.932Z,3.38
2022-09-01T22:59:14.149Z,3.33
2022-09-01T23:01:45.989Z,3.42
2022-09-01T23:06:51.834Z,3.05
2022-09-01T23:09:21.290Z,3.13
2022-09-01T23:11:50.989Z,3.45
2022-09-01T23:14:19.413Z,3.15
2022-09-01T23:16:51.502Z,3.20
2022-09-01T23:19:22.000Z,3.15
2022-09-01T23:21:51.777Z,2.97
2022-09-01T23:24:20.561Z,3.67
2022-09-01T23:26:50.278Z,3.30
2022-09-01T23:29:19.983Z,3.38
2022-09-01T23:31:48.578Z,3.38
2022-09-01T23:34:16.672Z,3.10
2022-09-01T23:36:44.760Z,3.25
2022-09-01T23:39:13.100Z,3.35
2022-09-01T23:41:42.126Z,3.25
2022-09-01T23:44:11.878Z,3.00
2022-09-01T23:46:45.982Z,3.53
2022-09-01T23:49:18.069Z,3.83
2022-09-01T23:51:47.871Z,3.50
2022-09-01T23:54:16.125Z,3.22
2022-09-01T23:56:44.337Z,2.78
2022-09-01T23:59:13.253Z,3.40
